Time;durP1;ratioP1;P1;durP2;ratioP2;P2;SDS_P1;SDS_P2;PMS_P1;PMS_P2;Temp;Humidity;BMP_temperature;BMP_pressure;BME280_temperature;BME280_humidity;BME280_pressure;Samples;Min_cycle;Max_cycle;Signal;HPM_P1;HPM_P2
2022/03/16 00:02:27;;;;;;;89.93;83.20;;;;;;;9.56;100.00;102013.80;2016566;70;32813;-73
2022/03/16 00:08:11;;;;;;;91.50;85.00;;;;;;;9.35;100.00;102008.98;2018608;70;33006;-73
2022/03/16 00:13:57;;;;;;;85.70;79.20;;;;;;;9.22;100.00;102006.50;1991487;71;32750;-73
2022/03/16 00:19:44;;;;;;;90.73;84.03;;;;;;;9.09;100.00;102011.80;1995267;71;32815;-73
2022/03/16 00:25:28;;;;;;;84.07;77.40;;;;;;;9.01;100.00;102006.11;1991564;71;32788;-73
2022/03/16 00:31:12;;;;;;;83.70;77.20;;;;;;;8.98;100.00;102003.84;2011901;71;33285;-73
2022/03/16 00:36:57;;;;;;;84.93;78.57;;;;;;;8.92;100.00;102006.74;2012895;71;32919;-74
2022/03/16 00:42:41;;;;;;;83.13;76.47;;;;;;;8.87;100.00;101998.32;2006219;71;32754;-73
2022/03/16 00:48:25;;;;;;;84.67;78.33;;;;;;;9.00;100.00;101996.11;2009236;70;32890;-74
2022/03/16 00:54:12;;;;;;;84.20;77.90;;;;;;;8.82;100.00;101992.67;2016502;71;32892;-73
2022/03/16 00:59:58;;;;;;;83.90;77.20;;;;;;;8.67;100.00;101989.91;1995293;71;32814;-74
2022/03/16 01:05:42;;;;;;;86.10;79.33;;;;;;;8.83;100.00;101982.73;2009431;71;32939;-73
2022/03/16 01:11:26;;;;;;;85.43;79.03;;;;;;;8.66;100.00;101979.91;1998428;71;32948;-74
2022/03/16 01:17:11;;;;;;;88.57;81.73;;;;;;;8.58;100.00;101971.98;2007625;71;32938;-74
2022/03/16 01:22:55;;;;;;;88.60;81.47;;;;;;;8.59;100.00;101965.36;2000326;71;32986;-73
2022/03/16 01:28:39;;;;;;;90.97;84.07;;;;;;;8.59;100.00;101958.98;2018558;71;33342;-74
2022/03/16 01:34:24;;;;;;;90.60;83.77;;;;;;;8.28;100.00;101961.59;2004405;71;32844;-73
2022/03/16 01:40:10;;;;;;;90.07;82.93;;;;;;;8.11;100.00;101949.58;2011057;71;33042;-74
2022/03/16 01:45:56;;;;;;;85.63;78.63;;;;;;;8.16;100.00;101946.94;2009983;71;33246;-74
2022/03/16 01:51:40;;;;;;;84.17;77.27;;;;;;;8.02;100.00;101937.19;1997203;71;32853;-74
2022/03/16 01:57:25;;;;;;;86.33;79.50;;;;;;;8.05;100.00;101925.09;2011812;71;32744;-74
2022/03/16 02:03:09;;;;;;;86.93;79.93;;;;;;;7.97;100.00;101924.08;1998442;71;32746;-73
2022/03/16 02:08:53;;;;;;;83.50;76.80;;;;;;;8.01;100.00;101916.98;2009480;71;32815;-74
2022/03/16 02:14:39;;;;;;;88.87;81.77;;;;;;;8.26;100.00;101926.95;2008259;71;33244;-72
2022/03/16 02:20:25;;;;;;;82.40;75.60;;;;;;;8.43;100.00;101918.22;2007679;71;33411;-73
2022/03/16 02:26:13;;;;;;;81.73;74.83;;;;;;;8.55;100.00;101910.70;2003805;71;32815;-74
2022/03/16 02:31:57;;;;;;;85.10;78.27;;;;;;;8.70;100.00;101904.08;2014859;71;33444;-73
2022/03/16 02:37:42;;;;;;;86.13;79.10;;;;;;;8.69;100.00;101899.62;2002324;71;33016;-74
2022/03/16 02:43:27;;;;;;;85.10;78.07;;;;;;;8.79;100.00;101898.44;2001034;71;33313;-73
2022/03/16 02:49:13;;;;;;;85.33;78.33;;;;;;;8.88;100.00;101891.41;2018432;71;32926;-74
2022/03/16 02:54:57;;;;;;;89.10;81.70;;;;;;;8.98;100.00;101888.00;2014681;71;32872;-74
2022/03/16 03:00:42;;;;;;;89.90;82.67;;;;;;;9.03;100.00;101883.36;2007619;71;32958;-73
2022/03/16 03:06:27;;;;;;;88.03;80.87;;;;;;;9.08;100.00;101877.92;1991579;71;32799;-73
2022/03/16 03:12:12;;;;;;;89.53;82.03;;;;;;;9.19;100.00;101886.42;2013164;71;32902;-75
2022/03/16 03:17:57;;;;;;;88.80;81.30;;;;;;;9.24;100.00;101879.59;2018365;71;32816;-73
2022/03/16 03:23:41;;;;;;;89.80;82.40;;;;;;;9.34;100.00;101888.05;2007757;71;33358;-74
2022/03/16 03:29:26;;;;;;;90.07;82.73;;;;;;;9.46;100.00;101872.16;2002655;70;32972;-74
2022/03/16 03:35:10;;;;;;;90.83;83.13;;;;;;;9.47;100.00;101873.85;1995109;71;32812;-73
2022/03/16 03:40:54;;;;;;;93.67;85.73;;;;;;;9.55;100.00;101870.65;2005826;71;32814;-74
2022/03/16 03:46:41;;;;;;;96.67;88.40;;;;;;;9.59;100.00;101867.12;2007526;71;32881;-74
2022/03/16 03:52:25;;;;;;;93.37;85.37;;;;;;;9.90;100.00;101872.58;2009364;71;33435;-74
2022/03/16 03:58:10;;;;;;;95.77;87.70;;;;;;;9.93;100.00;101867.05;2007488;71;32812;-73
2022/03/16 04:03:54;;;;;;;95.37;87.37;;;;;;;9.98;100.00;101864.34;2003808;71;32896;-73
2022/03/16 04:09:38;;;;;;;92.13;84.37;;;;;;;10.04;100.00;101860.02;1995084;71;32802;-74
2022/03/16 04:15:25;;;;;;;93.53;85.57;;;;;;;9.85;100.00;101857.23;2002372;71;32760;-74
2022/03/16 04:21:09;;;;;;;96.63;88.27;;;;;;;9.94;100.00;101857.63;2014859;71;33272;-74
2022/03/16 04:26:53;;;;;;;95.20;86.63;;;;;;;10.03;100.00;101849.16;2009995;71;32759;-73
2022/03/16 04:32:37;;;;;;;92.63;84.67;;;;;;;9.90;100.00;101845.37;2016643;71;32926;-73
2022/03/16 04:38:22;;;;;;;98.40;89.93;;;;;;;10.08;100.00;101853.39;2014919;70;32950;-73
2022/03/16 04:44:07;;;;;;;99.90;91.40;;;;;;;10.12;100.00;101845.38;2009348;71;32867;-74
2022/03/16 04:49:51;;;;;;;94.97;86.67;;;;;;;10.20;100.00;101846.34;2016897;71;33054;-73
2022/03/16 04:55:36;;;;;;;94.77;86.20;;;;;;;10.27;100.00;101853.95;2008059;71;33309;-74
2022/03/16 05:01:21;;;;;;;96.27;87.97;;;;;;;10.35;100.00;101847.94;1993450;70;39853;-73
2022/03/16 05:07:04;;;;;;;94.37;86.07;;;;;;;10.43;100.00;101844.16;2000620;71;32758;-73
2022/03/16 05:12:48;;;;;;;97.13;88.43;;;;;;;10.45;100.00;101854.98;1994766;71;32917;-73
2022/03/16 05:18:34;;;;;;;93.60;85.47;;;;;;;10.47;100.00;101841.69;2008192;71;32878;-74
2022/03/16 05:24:22;;;;;;;96.23;88.13;;;;;;;10.44;100.00;101829.14;1991540;71;32880;-73
2022/03/16 05:30:07;;;;;;;94.43;86.47;;;;;;;10.46;100.00;101820.56;1997071;71;33254;-73
2022/03/16 05:35:52;;;;;;;90.40;82.27;;;;;;;10.57;100.00;101801.50;2009421;71;31387;-73
2022/03/16 05:41:36;;;;;;;94.17;86.13;;;;;;;10.51;100.00;101784.51;2011277;71;33265;-74
2022/03/16 05:47:20;;;;;;;94.10;86.20;;;;;;;10.40;100.00;101791.88;2013041;71;32810;-74
2022/03/16 05:53:05;;;;;;;96.77;88.33;;;;;;;10.41;100.00;101799.12;1999162;71;32826;-74
2022/03/16 05:58:50;;;;;;;96.90;88.67;;;;;;;10.49;100.00;101792.25;1998538;71;32830;-74
2022/03/16 06:04:34;;;;;;;97.07;88.63;;;;;;;10.53;100.00;101787.84;2007391;71;32889;-74
2022/03/16 06:10:20;;;;;;;95.13;86.83;;;;;;;10.55;100.00;101800.09;1998433;71;32828;-73
2022/03/16 06:16:11;;;;;;;93.30;85.33;;;;;;;10.55;100.00;101805.11;2000095;71;32922;-72
2022/03/16 06:21:56;;;;;;;96.60;88.63;;;;;;;10.63;100.00;101801.85;2014971;71;32826;-73
2022/03/16 06:27:41;;;;;;;93.03;84.83;;;;;;;10.53;100.00;101803.67;2016442;71;32984;-74
2022/03/16 06:33:26;;;;;;;92.67;84.57;;;;;;;10.58;100.00;101807.90;2004480;71;32901;-74
2022/03/16 06:39:11;;;;;;;88.90;80.90;;;;;;;10.48;100.00;101812.82;2013101;71;32866;-74
2022/03/16 06:44:55;;;;;;;97.43;89.23;;;;;;;10.55;100.00;101812.60;2000626;71;32825;-71
2022/03/16 06:50:39;;;;;;;97.13;89.23;;;;;;;10.57;100.00;101817.36;2005837;71;33504;-73
2022/03/16 06:56:24;;;;;;;98.63;90.80;;;;;;;10.65;100.00;101814.95;2011223;71;32921;-73
2022/03/16 07:02:08;;;;;;;98.87;90.97;;;;;;;10.63;100.00;101833.80;2011131;71;32919;-74
2022/03/16 07:07:52;;;;;;;97.40;89.67;;;;;;;10.66;100.00;101831.89;2016895;71;32854;-74
2022/03/16 07:13:38;;;;;;;103.17;95.13;;;;;;;10.61;100.00;101835.99;1997135;71;32851;-75
2022/03/16 07:19:23;;;;;;;97.43;89.67;;;;;;;10.65;100.00;101844.67;2000247;71;32882;-72
2022/03/16 07:25:11;;;;;;;100.33;92.33;;;;;;;10.66;100.00;101851.33;2013294;71;32824;-73
2022/03/16 07:30:55;;;;;;;101.27;93.23;;;;;;;10.77;100.00;101843.96;2005990;71;32966;-73
2022/03/16 07:36:39;;;;;;;103.47;95.20;;;;;;;10.79;100.00;101839.80;2018553;71;33380;-73
2022/03/16 07:42:23;;;;;;;100.73;92.43;;;;;;;10.84;100.00;101845.42;2016898;71;32843;-73
2022/03/16 07:48:08;;;;;;;99.17;91.37;;;;;;;10.85;100.00;101847.66;2007970;71;33223;-71
2022/03/16 07:53:53;;;;;;;101.23;93.20;;;;;;;10.86;100.00;101842.39;2008030;71;32887;-74
2022/03/16 07:59:37;;;;;;;97.80;89.97;;;;;;;10.99;100.00;101838.34;2004785;71;33266;-78
2022/03/16 08:05:22;;;;;;;100.67;92.63;;;;;;;10.93;100.00;101834.66;1966853;72;32991;-77
2022/03/16 08:11:06;;;;;;;107.60;99.30;;;;;;;10.94;100.00;101834.41;2009657;71;32826;-70
2022/03/16 08:16:51;;;;;;;104.57;96.67;;;;;;;10.98;100.00;101836.66;2013759;71;33238;-71
2022/03/16 08:22:37;;;;;;;108.23;99.97;;;;;;;10.97;100.00;101838.59;2015005;71;33331;-70
2022/03/16 08:28:22;;;;;;;113.50;105.20;;;;;;;10.91;100.00;101850.78;2013258;71;32799;-71
2022/03/16 08:34:07;;;;;;;105.60;97.50;;;;;;;10.95;100.00;101852.74;2016814;71;32916;-72
2022/03/16 08:39:52;;;;;;;108.57;100.13;;;;;;;10.90;100.00;101850.48;1997007;71;32775;-72
2022/03/16 08:45:36;;;;;;;102.57;94.30;;;;;;;10.84;100.00;101848.20;2005625;71;32822;-75
2022/03/16 08:51:21;;;;;;;101.20;92.60;;;;;;;10.84;100.00;101862.09;2003988;71;33286;-74
2022/03/16 08:57:08;;;;;;;95.30;86.90;;;;;;;10.91;100.00;101853.56;2015020;71;33355;-73
2022/03/16 09:02:53;;;;;;;98.80;90.30;;;;;;;10.95;100.00;101843.59;2013028;71;33432;-74
2022/03/16 09:08:38;;;;;;;99.50;91.17;;;;;;;11.02;100.00;101849.77;2000750;71;32801;-75
2022/03/16 09:14:23;;;;;;;96.90;88.70;;;;;;;11.03;100.00;101827.81;1991357;71;32821;-75
2022/03/16 09:20:09;;;;;;;96.27;88.03;;;;;;;11.20;100.00;101838.80;2012935;71;32920;-74
2022/03/16 09:25:54;;;;;;;102.47;94.20;;;;;;;11.28;100.00;101837.77;1991714;71;32755;-75
2022/03/16 09:31:39;;;;;;;98.30;89.93;;;;;;;11.35;100.00;101830.56;2000892;71;33210;-74
2022/03/16 09:37:24;;;;;;;99.30;90.77;;;;;;;11.37;100.00;101827.83;1996998;71;32831;-74
2022/03/16 09:43:09;;;;;;;99.37;91.27;;;;;;;11.33;100.00;101835.58;2005602;71;32894;-75
2022/03/16 09:48:55;;;;;;;101.43;93.03;;;;;;;11.32;100.00;101831.95;1998331;71;32983;-74
2022/03/16 09:54:40;;;;;;;97.67;89.30;;;;;;;11.28;100.00;101835.53;2002486;71;32767;-75
2022/03/16 10:00:24;;;;;;;97.40;88.90;;;;;;;11.23;100.00;101829.92;1996617;71;32842;-73
2022/03/16 10:06:15;;;;;;;97.57;89.03;;;;;;;11.23;100.00;101829.92;2011609;71;32775;-73
2022/03/16 10:18:04;;;;;;;98.33;89.83;;;;;;;11.25;100.00;101800.72;2009032;71;32956;-73
2022/03/16 10:23:51;;;;;;;98.73;90.13;;;;;;;11.17;100.00;101802.61;2001976;71;33405;-75
2022/03/16 10:29:36;;;;;;;93.73;85.40;;;;;;;11.25;100.00;101801.30;2016354;71;32837;-74
2022/03/16 10:35:23;;;;;;;94.33;86.00;;;;;;;11.20;100.00;101783.19;2005460;71;32929;-75
2022/03/16 10:47:24;;;;;;;100.97;92.13;;;;;;;11.25;100.00;101765.95;1999958;71;32887;-74
2022/03/16 10:53:21;;;;;;;95.00;86.30;;;;;;;11.23;100.00;101754.28;1991383;71;33272;-73
2022/03/16 10:59:05;;;;;;;96.77;87.70;;;;;;;11.29;100.00;101739.86;2005569;71;33344;-74
2022/03/16 11:04:52;;;;;;;98.37;89.80;;;;;;;11.30;100.00;101741.52;1997109;71;33301;-74
2022/03/16 11:10:38;;;;;;;102.70;93.73;;;;;;;11.40;100.00;101707.66;2009651;71;32831;-76
2022/03/16 11:16:25;;;;;;;100.97;92.17;;;;;;;11.42;100.00;101691.52;2002188;71;32821;-73
2022/03/16 11:22:12;;;;;;;102.93;93.93;;;;;;;11.38;100.00;101707.66;2001876;71;32895;-75
2022/03/16 11:27:59;;;;;;;98.43;89.43;;;;;;;11.27;100.00;101705.35;1991306;71;32868;-74
2022/03/16 11:33:51;;;;;;;96.17;87.13;;;;;;;11.17;100.00;101701.66;2000457;71;32800;-73
2022/03/16 11:39:47;;;;;;;95.13;86.53;;;;;;;11.12;100.00;101691.37;2016478;71;32865;-74
2022/03/16 11:45:37;;;;;;;97.37;88.47;;;;;;;11.27;100.00;101682.27;2011046;71;32896;-74
2022/03/16 11:52:01;;;;;;;93.13;84.33;;;;;;;11.25;100.00;101675.57;2016337;71;32824;-74
2022/03/16 11:57:56;;;;;;;94.07;85.43;;;;;;;11.23;100.00;101665.28;2002342;71;33247;-74
2022/03/16 12:03:45;;;;;;;96.93;87.83;;;;;;;11.26;100.00;101649.44;2003927;71;33494;-73
2022/03/16 12:09:38;;;;;;;99.03;89.87;;;;;;;11.20;100.00;101649.70;2002031;71;32861;-74
2022/03/16 12:15:32;;;;;;;93.60;84.57;;;;;;;11.23;100.00;101647.20;2016591;71;32929;-74
2022/03/16 12:21:55;;;;;;;93.30;84.53;;;;;;;11.25;100.00;101638.02;2005321;71;32824;-75
2022/03/16 12:33:56;;;;;;;91.33;82.50;;;;;;;11.22;100.00;101631.62;2000228;71;32821;-74
2022/03/16 12:39:46;;;;;;;90.03;81.07;;;;;;;11.28;100.00;101610.23;2003560;71;33395;-74
2022/03/16 12:45:32;;;;;;;93.80;84.80;;;;;;;11.29;100.00;101608.59;2009014;71;32855;-75
2022/03/16 12:51:34;;;;;;;97.40;87.90;;;;;;;11.24;100.00;101596.05;2007590;71;33358;-75
2022/03/16 12:57:19;;;;;;;99.60;89.97;;;;;;;11.34;100.00;101597.46;2010774;71;32987;-74
2022/03/16 13:03:17;;;;;;;98.20;88.97;;;;;;;11.42;100.00;101596.13;2014664;71;33323;-74
2022/03/16 13:09:02;;;;;;;98.40;89.03;;;;;;;11.44;100.00;101603.63;2011157;71;33300;-75
2022/03/16 13:14:48;;;;;;;95.13;85.93;;;;;;;11.45;100.00;101593.34;2000178;71;33428;-74
2022/03/16 13:20:32;;;;;;;95.60;86.30;;;;;;;11.49;100.00;101582.78;2016517;71;33355;-75
2022/03/16 13:26:25;;;;;;;96.93;87.23;;;;;;;11.46;100.00;101572.20;2018316;71;33344;-74
2022/03/16 13:32:12;;;;;;;94.40;84.77;;;;;;;11.63;100.00;101574.75;2016556;71;32962;-75
2022/03/16 13:38:00;;;;;;;92.17;82.87;;;;;;;11.65;100.00;101573.36;2003620;71;33400;-73
2022/03/16 13:43:46;;;;;;;92.07;82.93;;;;;;;11.76;100.00;101567.30;2000466;71;32807;-74
2022/03/16 13:49:37;;;;;;;91.83;82.33;;;;;;;11.81;100.00;101559.77;2009700;71;32804;-74
2022/03/16 13:55:23;;;;;;;97.33;87.57;;;;;;;11.79;100.00;101557.00;1996926;71;33196;-74
2022/03/16 14:01:07;;;;;;;93.43;84.30;;;;;;;11.80;100.00;101543.38;2009680;71;32866;-73
2022/03/16 14:06:55;;;;;;;92.33;83.07;;;;;;;11.92;100.00;101545.33;2016403;71;32985;-75
2022/03/16 14:12:40;;;;;;;92.30;82.90;;;;;;;11.80;100.00;101547.00;1996884;71;32762;-74
2022/03/16 14:18:26;;;;;;;97.10;88.00;;;;;;;11.84;100.00;101530.02;2015001;71;32894;-75
2022/03/16 14:24:10;;;;;;;95.83;86.67;;;;;;;11.80;100.00;101523.89;2006078;71;32821;-74
2022/03/16 14:29:57;;;;;;;90.77;81.70;;;;;;;11.85;100.00;101520.53;2005982;71;33310;-74
2022/03/16 14:35:42;;;;;;;92.17;83.07;;;;;;;11.87;100.00;101517.48;2018212;71;30889;-72
2022/03/16 14:41:26;;;;;;;95.53;86.13;;;;;;;11.85;100.00;101516.35;1991466;71;32767;-75
2022/03/16 14:47:10;;;;;;;97.77;88.17;;;;;;;11.90;100.00;101520.25;2016491;71;33326;-72
2022/03/16 14:52:56;;;;;;;100.13;90.07;;;;;;;11.90;100.00;101520.25;2011138;71;32991;-72
2022/03/16 14:58:41;;;;;;;100.50;90.10;;;;;;;11.96;100.00;101521.94;2003586;71;32930;-73
2022/03/16 15:04:25;;;;;;;99.00;89.53;;;;;;;11.90;100.00;101537.80;2014914;71;32920;-76
2022/03/16 15:10:12;;;;;;;96.83;87.37;;;;;;;11.91;100.00;101550.61;2018069;71;32965;-73
2022/03/16 15:15:56;;;;;;;101.20;90.77;;;;;;;11.84;100.00;101557.02;2006092;71;32762;-72
2022/03/16 15:21:41;;;;;;;107.50;96.27;;;;;;;12.03;100.00;101548.38;2010874;71;32946;-76
2022/03/16 15:27:27;;;;;;;101.73;91.10;;;;;;;12.08;100.00;101545.61;1991324;71;32862;-73
2022/03/16 15:33:12;;;;;;;96.67;86.93;;;;;;;12.04;100.00;101530.56;2004305;71;33275;-76
2022/03/16 15:38:56;;;;;;;99.00;88.70;;;;;;;12.04;100.00;101525.55;2006225;70;33209;-76
2022/03/16 15:44:40;;;;;;;99.37;89.07;;;;;;;12.01;100.00;101521.39;2010978;71;32866;-73
2022/03/16 15:50:25;;;;;;;102.43;92.17;;;;;;;12.01;100.00;101513.03;2012931;71;32901;-73
2022/03/16 15:56:10;;;;;;;99.10;89.20;;;;;;;11.99;100.00;101513.02;2009278;71;32896;-74
2022/03/16 16:01:54;;;;;;;98.13;88.17;;;;;;;12.06;100.00;101527.52;2011613;71;32776;-74
2022/03/16 16:07:40;;;;;;;96.70;87.67;;;;;;;11.89;100.00;101540.88;1994719;71;32928;-73
2022/03/16 16:13:25;;;;;;;95.57;86.33;;;;;;;11.72;100.00;101545.31;2016336;71;32829;-74
2022/03/16 16:19:12;;;;;;;104.07;94.70;;;;;;;11.69;100.00;101549.98;2012866;71;32828;-73
2022/03/16 16:24:57;;;;;;;95.70;86.80;;;;;;;11.69;100.00;101558.33;1998773;71;32832;-72
2022/03/16 16:30:42;;;;;;;93.03;84.53;;;;;;;11.70;100.00;101570.59;2005610;71;33438;-74
2022/03/16 16:36:30;;;;;;;92.33;83.73;;;;;;;11.67;100.00;101573.94;1996969;71;32874;-71
2022/03/16 16:48:18;;;;;;;89.03;81.20;;;;;;;11.58;100.00;101581.14;2005912;71;32740;-75
2022/03/16 16:54:03;;;;;;;79.40;71.90;;;;;;;11.56;100.00;101589.46;2005418;71;32819;-74
2022/03/16 16:59:47;;;;;;;82.10;75.00;;;;;;;11.50;100.00;101590.03;2009766;71;32754;-73
2022/03/16 17:05:32;;;;;;;80.00;73.30;;;;;;;11.50;100.00;101601.70;1964214;72;33328;-74
2022/03/16 17:11:18;;;;;;;77.07;70.47;;;;;;;11.52;100.00;101603.09;2018304;71;32834;-74
2022/03/16 17:17:04;;;;;;;73.50;67.40;;;;;;;11.37;100.00;101597.48;1998940;71;32771;-74
2022/03/16 17:22:51;;;;;;;74.93;68.77;;;;;;;11.44;100.00;101592.50;1996899;71;32812;-73
2022/03/16 17:28:36;;;;;;;69.00;63.10;;;;;;;11.33;100.00;101614.44;2005706;71;32897;-73
2022/03/16 17:34:21;;;;;;;65.93;60.63;;;;;;;11.31;100.00;101629.16;2009994;71;33373;-73
2022/03/16 17:40:07;;;;;;;65.03;59.80;;;;;;;11.13;100.00;101642.12;2008062;71;32809;-72
2022/03/16 17:45:52;;;;;;;69.97;64.60;;;;;;;11.03;100.00;101637.92;1998673;71;32870;-72
2022/03/16 17:51:38;;;;;;;69.23;63.63;;;;;;;10.86;100.00;101633.93;2011143;71;32844;-74
2022/03/16 17:57:23;;;;;;;74.20;67.90;;;;;;;10.74;100.00;101654.95;2015016;71;33310;-75
2022/03/16 18:03:10;;;;;;;79.60;73.10;;;;;;;10.57;100.00;101665.95;1978526;68;109786;-76
2022/03/16 18:08:55;;;;;;;78.30;71.73;;;;;;;10.53;100.00;101687.84;1995522;71;32833;-74
2022/03/16 18:14:40;;;;;;;80.13;73.63;;;;;;;10.39;100.00;101704.67;1998826;71;33032;-76
2022/03/16 18:20:25;;;;;;;82.20;75.70;;;;;;;10.36;100.00;101722.69;2002535;71;32831;-76
2022/03/16 18:26:11;;;;;;;83.57;77.13;;;;;;;10.37;100.00;101735.48;1997221;71;32924;-75
2022/03/16 18:31:56;;;;;;;81.93;75.73;;;;;;;10.32;100.00;101743.75;2000862;71;33267;-75
2022/03/16 18:37:41;;;;;;;73.37;67.47;;;;;;;10.26;100.00;101749.53;2018493;71;32922;-76
2022/03/16 18:43:26;;;;;;;76.00;70.00;;;;;;;10.26;100.00;101764.80;2004613;71;33324;-75
2022/03/16 18:49:10;;;;;;;75.93;70.13;;;;;;;10.23;100.00;101763.36;2002403;71;32820;-74
2022/03/16 18:54:54;;;;;;;85.03;78.70;;;;;;;10.13;100.00;101770.72;2000255;71;32834;-74
2022/03/16 19:00:41;;;;;;;74.63;69.23;;;;;;;10.13;100.00;101768.79;2006664;71;32773;-75
2022/03/16 19:06:25;;;;;;;75.40;70.00;;;;;;;10.07;100.00;101778.14;1997107;71;32788;-74
2022/03/16 19:18:13;;;;;;;74.83;69.13;;;;;;;10.01;100.00;101813.89;1998750;71;32940;-74
2022/03/16 19:23:58;;;;;;;77.73;72.17;;;;;;;9.95;100.00;101807.97;1991863;71;32769;-75
2022/03/16 19:29:43;;;;;;;81.80;76.10;;;;;;;10.00;100.00;101826.09;2006706;71;33231;-78
2022/03/16 19:35:30;;;;;;;81.13;75.33;;;;;;;9.91;100.00;101844.28;2004372;71;33330;-76
2022/03/16 19:41:14;;;;;;;84.50;78.50;;;;;;;9.93;100.00;101851.23;2006356;71;32899;-76
2022/03/16 19:47:00;;;;;;;82.80;76.97;;;;;;;9.94;100.00;101869.58;2008425;71;33355;-74
2022/03/16 19:52:45;;;;;;;89.63;83.13;;;;;;;9.96;100.00;101903.48;2014887;71;32942;-77
2022/03/16 19:58:29;;;;;;;87.00;80.90;;;;;;;9.90;100.00;101914.75;2002536;71;32829;-76
2022/03/16 20:04:15;;;;;;;83.40;77.73;;;;;;;9.72;100.00;101942.22;2014917;71;32899;-77
2022/03/16 20:09:59;;;;;;;82.77;76.97;;;;;;;9.28;100.00;101952.84;2010009;70;32885;-75
2022/03/16 20:15:45;;;;;;;80.63;74.87;;;;;;;9.07;100.00;101948.86;1997139;71;32797;-74
2022/03/16 20:21:30;;;;;;;84.70;78.90;;;;;;;9.07;100.00;101971.03;2000142;71;32941;-76
2022/03/16 20:27:15;;;;;;;84.07;78.37;;;;;;;9.03;100.00;101990.61;2011389;71;33361;-73
2022/03/16 20:32:59;;;;;;;79.03;73.33;;;;;;;8.91;100.00;102016.14;2002867;71;33213;-79
2022/03/16 20:38:45;;;;;;;76.17;70.70;;;;;;;8.82;100.00;102023.99;2015454;71;32986;-75
2022/03/16 20:44:30;;;;;;;79.23;73.83;;;;;;;8.76;100.00;102024.98;2011931;71;32872;-74
2022/03/16 20:50:14;;;;;;;83.70;78.20;;;;;;;8.66;100.00;102033.91;2002829;71;32842;-74
2022/03/16 20:56:06;;;;;;;80.40;75.10;;;;;;;8.62;100.00;102059.57;2000688;71;32827;-78
2022/03/16 21:01:52;;;;;;;75.47;70.13;;;;;;;8.57;100.00;102061.69;2001194;71;32850;-75
2022/03/16 21:07:39;;;;;;;78.80;73.40;;;;;;;8.53;100.00;102077.64;2004433;71;32822;-74
2022/03/16 21:13:23;;;;;;;77.17;71.77;;;;;;;8.46;100.00;102087.47;1995667;71;33281;-75
2022/03/16 21:19:09;;;;;;;76.73;71.33;;;;;;;8.42;100.00;102099.27;2017064;71;32842;-77
2022/03/16 21:24:55;;;;;;;78.07;72.67;;;;;;;8.50;100.00;102116.90;2004291;71;33405;-75
2022/03/16 21:30:40;;;;;;;75.80;70.50;;;;;;;8.52;100.00;102129.41;1994995;71;32840;-76
2022/03/16 21:36:26;;;;;;;79.63;74.23;;;;;;;8.44;100.00;102146.92;2013171;71;32965;-75
2022/03/16 21:48:13;;;;;;;78.80;73.60;;;;;;;8.24;100.00;102177.15;1991454;71;32767;-73
2022/03/16 21:53:58;;;;;;;79.67;74.47;;;;;;;8.32;100.00;102202.83;2009392;71;32825;-75
2022/03/16 21:59:42;;;;;;;81.33;76.07;;;;;;;8.24;100.00;102208.98;2011771;71;33417;-73
2022/03/16 22:05:28;;;;;;;78.50;73.57;;;;;;;8.27;100.00;102218.73;2008133;71;32745;-74
2022/03/16 22:11:13;;;;;;;84.20;79.00;;;;;;;8.23;100.00;102232.20;2011359;71;32969;-72
2022/03/16 22:16:57;;;;;;;80.03;74.93;;;;;;;8.19;100.00;102244.83;2015253;71;32913;-74
2022/03/16 22:22:41;;;;;;;82.30;77.20;;;;;;;8.20;100.00;102250.67;2013958;71;32813;-75
2022/03/16 22:28:26;;;;;;;84.67;79.37;;;;;;;8.22;100.00;102265.11;2006344;71;32874;-74
2022/03/16 22:34:10;;;;;;;79.70;74.63;;;;;;;8.18;100.00;102261.13;2011579;71;32833;-77
2022/03/16 22:39:55;;;;;;;84.43;78.93;;;;;;;8.21;100.00;102274.48;1991701;71;32764;-79
2022/03/16 22:45:40;;;;;;;82.33;76.93;;;;;;;8.20;100.00;102288.05;2004318;71;32761;-75
2022/03/16 22:51:25;;;;;;;78.53;73.23;;;;;;;8.18;100.00;102291.56;2001135;71;32818;-75
2022/03/16 22:57:09;;;;;;;83.00;77.43;;;;;;;8.24;100.00;102300.34;2000976;71;32833;-77
2022/03/16 23:02:55;;;;;;;82.43;76.83;;;;;;;8.19;100.00;102304.87;1998245;71;32763;-74
2022/03/16 23:08:40;;;;;;;81.37;75.50;;;;;;;8.11;100.00;102315.73;2009547;71;32848;-74
2022/03/16 23:14:24;;;;;;;77.03;71.17;;;;;;;8.03;100.00;102319.36;2011107;71;32825;-74
2022/03/16 23:20:11;;;;;;;81.57;75.70;;;;;;;7.88;100.00;102322.52;2018453;71;32826;-74
2022/03/16 23:25:56;;;;;;;83.40;77.80;;;;;;;7.84;100.00;102333.73;2002602;71;32766;-74
2022/03/16 23:31:42;;;;;;;84.33;78.83;;;;;;;7.88;100.00;102355.71;2015183;71;32877;-75
2022/03/16 23:37:27;;;;;;;80.67;75.27;;;;;;;7.93;100.00;102358.64;2011454;71;32873;-73
2022/03/16 23:43:12;;;;;;;76.33;71.10;;;;;;;7.92;100.00;102358.33;2006174;71;32865;-76
2022/03/16 23:48:57;;;;;;;77.77;72.57;;;;;;;8.02;100.00;102354.48;2016487;71;32817;-75
2022/03/16 23:54:44;;;;;;;76.93;71.80;;;;;;;8.00;100.00;102366.31;2013046;71;33002;-74
